Hale, Michigan
Current Conditions -  °F | °C
As of 9:33 PM on Sunday 25 Jan 2015 (Local Time) from KOSC Reporting Station
Light Snow Light Snow  
Wind Chill:   Ceiling: 2200
Heat Index: 14°   Visibility: 10mi
Dew Point: 10°   Wind: 7mph
Humidity: 82%   Direction: 350°N
Pressure: 30.06"   Gusts: NA
Location:  44.38°N, 83.8°W
Report Text: KOSC 260233Z AUTO 35006KT 10SM -SN OVC022 M10/M12 A3006 RMK AO2 T11001125
Loading
Personal Weather Stations






























Interactive Weather Map New forecast layout! Learn more

10-Day Weather Forecast

Advertisements
Track Severe Weather on mobile